Time;durP1;ratioP1;P1;durP2;ratioP2;P2;SDS_P1;SDS_P2;PMS_P1;PMS_P2;Temp;Humidity;BMP_temperature;BMP_pressure;BME280_temperature;BME280_humidity;BME280_pressure;Samples;Min_cycle;Max_cycle;Signal;HPM_P1;HPM_P2
2023/08/29 00:00:17;;;;;;;7.28;5.28;;;;;;;15.72;77.29;97517.66;4891897;29;20124;-69
2023/08/29 00:02:44;;;;;;;5.82;5.15;;;;;;;15.73;76.93;97508.38;4877110;29;20025;-69
2023/08/29 00:05:09;;;;;;;5.90;5.18;;;;;;;15.67;77.28;97501.44;4891812;29;20044;-71
2023/08/29 00:07:36;;;;;;;5.90;5.20;;;;;;;15.75;77.23;97514.34;4876200;29;20165;-70
2023/08/29 00:10:02;;;;;;;5.90;5.30;;;;;;;15.62;77.11;97506.91;4876131;29;20044;-69
2023/08/29 00:12:27;;;;;;;6.05;4.85;;;;;;;15.65;76.97;97511.78;4877044;29;20052;-70
2023/08/29 00:14:52;;;;;;;5.63;5.07;;;;;;;15.71;76.77;97516.03;4891991;29;20070;-70
2023/08/29 00:17:18;;;;;;;6.65;4.93;;;;;;;15.71;76.81;97507.88;4874160;29;20030;-70
2023/08/29 00:19:43;;;;;;;5.53;5.00;;;;;;;15.62;77.07;97510.44;4877488;29;20514;-70
2023/08/29 00:22:09;;;;;;;5.15;4.75;;;;;;;15.68;76.98;97516.63;4877306;29;20033;-70
2023/08/29 00:24:34;;;;;;;6.05;5.07;;;;;;;15.59;76.79;97508.31;4891561;29;20041;-73
2023/08/29 00:26:59;;;;;;;6.63;5.00;;;;;;;15.64;76.93;97526.44;4891787;29;20065;-73
2023/08/29 00:29:26;;;;;;;5.05;4.57;;;;;;;15.56;76.92;97513.53;4891849;29;20049;-73
2023/08/29 00:31:51;;;;;;;5.28;4.53;;;;;;;15.51;76.68;97510.88;4891296;29;20027;-74
2023/08/29 00:34:17;;;;;;;5.15;4.63;;;;;;;15.45;76.84;97502.00;4891764;29;20411;-74
2023/08/29 00:36:42;;;;;;;6.60;4.53;;;;;;;15.47;77.09;97505.25;4873402;29;20040;-71
2023/08/29 00:39:08;;;;;;;5.00;4.57;;;;;;;15.43;77.16;97492.50;4891658;29;20048;-71
2023/08/29 00:41:33;;;;;;;5.13;4.60;;;;;;;15.46;77.30;97498.19;4891695;29;20025;-71
2023/08/29 00:43:58;;;;;;;5.07;4.55;;;;;;;15.48;77.46;97489.75;4895062;29;20517;-71
2023/08/29 00:46:25;;;;;;;4.75;4.35;;;;;;;15.40;77.10;97472.22;4895039;29;20029;-71
2023/08/29 00:48:51;;;;;;;5.07;4.57;;;;;;;15.53;77.14;97493.22;4879267;29;20080;-72
2023/08/29 00:51:17;;;;;;;5.07;4.68;;;;;;;15.48;77.14;97484.31;4894744;29;20076;-72
2023/08/29 00:53:42;;;;;;;6.95;4.78;;;;;;;15.52;77.15;97501.66;4894882;29;20045;-73
2023/08/29 00:56:08;;;;;;;4.88;4.38;;;;;;;15.53;77.26;97503.25;4880688;29;20036;-72
2023/08/29 00:58:34;;;;;;;6.18;4.57;;;;;;;15.47;77.29;97497.13;4879179;29;20033;-72
2023/08/29 01:00:59;;;;;;;5.38;4.90;;;;;;;15.57;77.31;97515.13;4894534;29;20499;-71
2023/08/29 01:03:24;;;;;;;5.28;4.57;;;;;;;15.59;77.11;97515.69;4881943;29;20029;-72
2023/08/29 01:05:50;;;;;;;4.90;4.45;;;;;;;15.53;77.40;97511.41;4876110;29;20053;-72
2023/08/29 01:08:15;;;;;;;5.55;4.90;;;;;;;15.46;77.60;97516.38;4894299;29;20033;-73
2023/08/29 01:11:11;;;;;;;5.22;4.72;;;;;;;15.45;77.21;97518.28;4894564;29;20025;-72
2023/08/29 01:13:46;;;;;;;5.43;4.90;;;;;;;15.35;77.68;97504.03;4894459;29;20041;-73
2023/08/29 01:16:12;;;;;;;5.00;4.60;;;;;;;15.47;77.70;97509.88;4894443;29;20081;-72
2023/08/29 01:18:38;;;;;;;5.57;4.90;;;;;;;15.49;78.01;97513.09;4879239;29;20060;-71
2023/08/29 01:21:26;;;;;;;5.57;5.07;;;;;;;15.47;77.83;97521.53;4879886;29;20112;-71
2023/08/29 01:24:00;;;;;;;6.22;5.50;;;;;;;15.56;77.87;97524.41;4880132;29;20037;-72
2023/08/29 01:26:26;;;;;;;6.43;4.95;;;;;;;15.50;78.27;97515.50;4894399;29;20048;-72
2023/08/29 01:28:52;;;;;;;6.60;5.13;;;;;;;15.44;78.10;97515.84;4894314;29;20040;-73
2023/08/29 01:31:18;;;;;;;5.07;4.68;;;;;;;15.41;78.27;97517.22;4894082;29;20618;-73
2023/08/29 01:33:45;;;;;;;5.78;4.90;;;;;;;15.37;78.39;97523.53;4893739;29;20029;-73
2023/08/29 01:36:10;;;;;;;6.25;4.82;;;;;;;15.39;78.35;97514.00;4894216;29;20084;-73
2023/08/29 01:38:36;;;;;;;6.85;4.88;;;;;;;15.31;78.31;97500.28;4877418;29;20128;-72
2023/08/29 01:41:02;;;;;;;7.20;4.78;;;;;;;15.42;78.22;97528.91;4893805;29;20041;-71
2023/08/29 01:43:27;;;;;;;7.75;4.60;;;;;;;15.38;78.22;97522.44;4877137;29;20018;-71
2023/08/29 01:45:52;;;;;;;6.53;5.18;;;;;;;15.47;78.14;97532.38;4894057;29;20112;-72
2023/08/29 01:48:18;;;;;;;5.38;4.88;;;;;;;15.36;77.89;97519.19;4876918;29;20030;-72
2023/08/29 01:50:45;;;;;;;5.45;4.93;;;;;;;15.36;77.74;97513.75;4902226;29;20173;-71
2023/08/29 01:53:11;;;;;;;5.60;4.80;;;;;;;15.46;78.35;97529.94;4881437;29;20028;-71
2023/08/29 01:55:37;;;;;;;8.50;5.50;;;;;;;15.50;78.39;97525.53;4875046;29;20492;-73
2023/08/29 01:58:04;;;;;;;7.05;5.28;;;;;;;15.51;78.26;97524.47;4890432;29;20044;-72
2023/08/29 02:00:31;;;;;;;8.10;4.93;;;;;;;15.40;78.63;97493.09;4878249;29;20033;-72
2023/08/29 02:02:57;;;;;;;5.55;5.05;;;;;;;15.40;78.88;97493.91;4877824;29;20503;-71
2023/08/29 02:05:22;;;;;;;8.25;5.25;;;;;;;15.38;78.73;97476.31;4893446;29;20037;-72
2023/08/29 02:07:49;;;;;;;6.05;5.20;;;;;;;15.41;79.00;97490.09;4893372;29;20029;-70
2023/08/29 02:10:14;;;;;;;5.25;4.85;;;;;;;15.42;78.76;97486.28;4878839;29;20048;-70
2023/08/29 02:12:40;;;;;;;5.65;5.15;;;;;;;15.43;79.00;97485.19;4876346;29;20029;-73
2023/08/29 02:15:06;;;;;;;7.03;5.60;;;;;;;15.38;79.27;97468.19;4879073;29;20045;-71
2023/08/29 02:17:33;;;;;;;6.15;5.53;;;;;;;15.48;79.47;97489.75;4865091;29;20484;-69
2023/08/29 02:19:58;;;;;;;6.25;5.65;;;;;;;15.33;79.76;97476.38;4893305;29;20123;-72
2023/08/29 02:22:23;;;;;;;6.07;5.55;;;;;;;15.32;79.74;97470.13;4892983;29;20128;-72
2023/08/29 02:24:49;;;;;;;6.53;5.78;;;;;;;15.41;79.64;97473.00;4877543;29;20037;-72
2023/08/29 02:27:14;;;;;;;6.10;5.50;;;;;;;15.45;80.06;97474.06;4879809;29;20427;-71
2023/08/29 02:29:40;;;;;;;9.90;6.32;;;;;;;15.39;79.68;97453.50;4894911;29;20049;-70
2023/08/29 02:32:07;;;;;;;5.88;5.38;;;;;;;15.48;80.38;97468.03;4876511;29;20029;-72
2023/08/29 02:34:32;;;;;;;6.30;5.70;;;;;;;15.50;80.35;97461.22;4892856;29;20044;-72
2023/08/29 02:36:58;;;;;;;7.10;6.40;;;;;;;15.36;80.71;97444.03;4880408;29;20078;-72
2023/08/29 02:39:23;;;;;;;7.82;6.32;;;;;;;15.44;80.42;97450.72;4878342;29;20045;-71
2023/08/29 02:41:48;;;;;;;6.55;5.95;;;;;;;15.48;80.67;97463.44;4892406;29;20112;-71
2023/08/29 02:44:14;;;;;;;7.03;6.32;;;;;;;15.47;80.71;97469.16;4892549;29;20040;-68
2023/08/29 02:46:39;;;;;;;11.02;6.55;;;;;;;15.41;80.92;97467.56;4875765;29;20112;-70
2023/08/29 02:49:05;;;;;;;7.47;6.82;;;;;;;15.34;81.00;97451.66;4892688;29;20084;-72
2023/08/29 02:51:31;;;;;;;7.93;7.32;;;;;;;15.29;81.28;97462.56;4905091;29;20032;-72
2023/08/29 02:53:56;;;;;;;8.40;7.60;;;;;;;15.23;81.29;97455.63;4892514;29;20044;-71
2023/08/29 02:56:22;;;;;;;8.63;7.53;;;;;;;15.20;81.50;97454.28;4892436;29;20029;-72
2023/08/29 02:58:47;;;;;;;7.70;7.00;;;;;;;15.26;81.90;97474.03;4889783;29;20036;-72
2023/08/29 03:01:13;;;;;;;8.73;7.82;;;;;;;15.33;81.94;97470.97;4873682;29;20174;-73
2023/08/29 03:03:39;;;;;;;7.82;7.13;;;;;;;15.37;81.69;97472.78;4861418;29;20040;-71
2023/08/29 03:06:04;;;;;;;9.50;8.57;;;;;;;15.39;82.10;97476.00;4874983;29;20029;-73
2023/08/29 03:08:30;;;;;;;8.27;7.53;;;;;;;15.38;82.11;97479.03;4861285;29;20415;-72
2023/08/29 03:10:55;;;;;;;11.48;8.38;;;;;;;15.42;81.98;97485.47;4876993;29;20412;-71
2023/08/29 03:13:22;;;;;;;12.30;8.27;;;;;;;15.41;82.55;97489.28;4892565;29;20415;-72
2023/08/29 03:15:48;;;;;;;9.48;8.57;;;;;;;15.45;82.11;97493.06;4875062;29;20025;-71
2023/08/29 03:18:14;;;;;;;10.00;7.85;;;;;;;15.40;82.48;97477.63;4892212;29;20488;-72
2023/08/29 03:20:42;;;;;;;8.60;7.68;;;;;;;15.35;82.32;97468.75;4892214;29;20040;-73
2023/08/29 03:23:09;;;;;;;9.50;8.40;;;;;;;15.30;81.99;97463.41;4891857;29;20021;-73
2023/08/29 03:25:34;;;;;;;10.23;9.05;;;;;;;15.34;82.12;97461.69;4875064;29;20032;-73
2023/08/29 03:28:00;;;;;;;9.70;8.63;;;;;;;15.33;82.10;97476.38;4892318;29;20085;-72
2023/08/29 03:30:26;;;;;;;10.20;9.13;;;;;;;15.31;82.19;97473.16;4892250;29;20423;-74
2023/08/29 03:32:52;;;;;;;10.75;9.65;;;;;;;15.28;82.49;97469.13;4860699;29;20116;-71
2023/08/29 03:35:18;;;;;;;10.02;9.13;;;;;;;15.21;82.27;97464.06;4877590;29;20461;-70
2023/08/29 03:37:44;;;;;;;11.98;10.77;;;;;;;15.16;82.61;97458.69;4891817;29;20069;-72
2023/08/29 03:40:10;;;;;;;10.15;9.25;;;;;;;15.14;82.67;97457.38;4891843;29;20056;-71
2023/08/29 03:42:37;;;;;;;11.43;10.32;;;;;;;15.12;83.00;97454.94;4891626;29;20567;-70
2023/08/29 03:45:03;;;;;;;13.10;10.95;;;;;;;15.08;83.15;97459.34;4891768;29;20181;-70
2023/08/29 03:47:30;;;;;;;14.48;10.88;;;;;;;14.99;83.46;97460.28;4891907;29;20041;-72
2023/08/29 03:49:55;;;;;;;13.60;12.27;;;;;;;14.98;83.53;97462.16;4860867;29;20476;-72
2023/08/29 03:52:22;;;;;;;13.82;12.45;;;;;;;14.90;84.38;97456.59;4868787;29;20049;-70
2023/08/29 03:54:48;;;;;;;14.38;12.98;;;;;;;14.90;84.18;97460.13;4871680;29;20030;-71
2023/08/29 03:57:13;;;;;;;14.18;12.00;;;;;;;14.96;84.23;97472.50;4891700;29;20514;-71
2023/08/29 03:59:38;;;;;;;16.23;13.57;;;;;;;14.95;84.31;97470.91;4879316;29;20029;-72
2023/08/29 04:02:06;;;;;;;12.52;11.32;;;;;;;14.96;84.71;97461.66;4891604;29;20055;-70
2023/08/29 04:04:32;;;;;;;17.45;14.00;;;;;;;14.82;84.62;97432.84;4889407;29;20057;-72
2023/08/29 04:06:59;;;;;;;13.30;12.05;;;;;;;14.97;84.93;97473.31;4867387;29;20077;-72
2023/08/29 04:09:24;;;;;;;15.75;13.35;;;;;;;14.96;84.75;97467.06;4891378;29;20029;-72
2023/08/29 04:11:50;;;;;;;15.70;14.10;;;;;;;15.02;85.10;97471.34;4891540;29;20129;-71
2023/08/29 04:14:15;;;;;;;12.95;11.68;;;;;;;15.01;85.24;97469.72;4891292;29;20037;-71
2023/08/29 04:16:41;;;;;;;16.50;14.88;;;;;;;15.08;85.58;97474.78;4892049;29;20036;-72
2023/08/29 04:19:07;;;;;;;17.58;15.38;;;;;;;15.13;85.20;97478.25;4895223;29;20024;-73
2023/08/29 04:21:32;;;;;;;15.40;13.73;;;;;;;15.11;85.46;97475.03;4879286;29;20044;-73
2023/08/29 04:23:59;;;;;;;17.20;15.38;;;;;;;15.00;85.83;97457.28;4895120;29;20028;-74
2023/08/29 04:26:24;;;;;;;16.92;13.68;;;;;;;14.87;85.55;97425.44;4879592;29;20492;-74
2023/08/29 04:28:50;;;;;;;16.38;14.25;;;;;;;15.12;85.41;97454.16;4880647;29;20127;-74
2023/08/29 04:31:17;;;;;;;15.25;13.65;;;;;;;15.11;85.94;97447.09;4894596;29;20044;-74
2023/08/29 04:33:43;;;;;;;15.95;14.32;;;;;;;15.07;85.85;97438.75;4863762;29;20542;-74
2023/08/29 04:36:08;;;;;;;15.93;14.32;;;;;;;15.05;85.62;97432.00;4879607;29;20042;-73
2023/08/29 04:38:34;;;;;;;18.98;16.50;;;;;;;15.11;85.63;97437.06;4894683;29;20040;-74
2023/08/29 04:41:00;;;;;;;18.55;16.52;;;;;;;15.10;85.71;97432.72;4878788;29;20517;-72
2023/08/29 04:43:26;;;;;;;15.73;14.18;;;;;;;15.01;85.61;97420.91;4863474;29;20025;-73
2023/08/29 04:45:52;;;;;;;14.32;12.82;;;;;;;14.89;85.82;97406.19;4894616;29;20064;-71
2023/08/29 04:48:17;;;;;;;16.48;14.68;;;;;;;15.01;85.51;97426.34;4894457;29;20487;-73
2023/08/29 04:50:45;;;;;;;15.52;13.93;;;;;;;15.05;85.87;97432.78;4887025;29;20041;-74
2023/08/29 04:53:10;;;;;;;15.43;13.93;;;;;;;15.04;85.79;97433.09;4882403;29;20029;-74
2023/08/29 04:55:36;;;;;;;16.02;14.35;;;;;;;15.09;85.70;97430.31;4894621;29;20048;-72
2023/08/29 04:58:02;;;;;;;14.23;12.98;;;;;;;15.11;85.46;97428.94;4877766;29;20033;-73
2023/08/29 05:00:28;;;;;;;15.52;13.65;;;;;;;15.07;85.26;97419.78;4880016;29;20126;-73
2023/08/29 05:02:54;;;;;;;16.23;14.63;;;;;;;15.09;85.78;97439.25;4862976;29;20032;-70
2023/08/29 05:05:20;;;;;;;16.40;14.68;;;;;;;14.97;85.72;97419.91;4894179;29;20044;-72
2023/08/29 05:07:45;;;;;;;17.17;13.98;;;;;;;15.08;85.77;97432.22;4881681;29;20037;-73
2023/08/29 05:10:11;;;;;;;18.40;16.48;;;;;;;15.01;86.14;97420.91;4878867;29;20434;-73
2023/08/29 05:12:37;;;;;;;18.20;16.08;;;;;;;14.92;86.30;97430.81;4893904;29;20040;-72
2023/08/29 05:15:03;;;;;;;16.63;14.35;;;;;;;14.80;86.49;97414.16;4894149;29;20036;-73
2023/08/29 05:17:28;;;;;;;16.50;14.80;;;;;;;14.83;86.57;97424.41;4878436;29;20039;-73
2023/08/29 05:19:54;;;;;;;17.33;15.52;;;;;;;14.78;86.71;97420.94;4886067;29;20048;-76
2023/08/29 05:22:19;;;;;;;16.35;14.75;;;;;;;14.79;86.86;97422.56;4874369;29;20025;-71
2023/08/29 05:24:45;;;;;;;17.80;15.82;;;;;;;14.74;86.83;97409.91;4894007;29;20041;-73
2023/08/29 05:27:10;;;;;;;16.92;15.32;;;;;;;14.81;86.30;97426.63;4893561;29;20100;-73
2023/08/29 05:29:35;;;;;;;16.00;14.43;;;;;;;14.82;87.13;97425.50;4878225;29;20048;-73
2023/08/29 05:32:01;;;;;;;16.55;14.85;;;;;;;14.84;86.99;97431.44;4893460;29;20040;-73
2023/08/29 05:34:26;;;;;;;15.82;14.20;;;;;;;14.87;86.65;97436.28;4879409;29;20595;-73
2023/08/29 05:36:52;;;;;;;14.10;12.80;;;;;;;14.87;86.92;97430.88;4861040;29;20033;-73
2023/08/29 05:39:17;;;;;;;14.30;12.52;;;;;;;14.95;87.09;97426.72;4878355;29;20404;-73
2023/08/29 05:41:43;;;;;;;14.55;13.18;;;;;;;15.06;86.48;97429.00;4893560;29;20072;-73
2023/08/29 05:44:08;;;;;;;15.77;14.30;;;;;;;15.01;86.59;97423.63;4878138;29;20043;-74
2023/08/29 05:46:33;;;;;;;14.38;12.77;;;;;;;15.12;86.48;97440.59;4880958;29;20479;-72
2023/08/29 05:48:59;;;;;;;18.67;15.30;;;;;;;15.14;86.26;97436.50;4879195;29;20139;-72
2023/08/29 05:51:28;;;;;;;16.23;14.68;;;;;;;15.19;86.36;97436.41;4878908;29;20025;-72
2023/08/29 05:53:53;;;;;;;13.30;12.10;;;;;;;15.18;86.19;97432.09;4877813;29;20093;-72
2023/08/29 05:56:19;;;;;;;14.50;13.18;;;;;;;15.22;86.04;97430.41;4881161;29;20029;-72
2023/08/29 05:58:45;;;;;;;15.75;12.43;;;;;;;15.18;86.49;97437.50;4877844;29;20483;-72
2023/08/29 06:01:11;;;;;;;13.85;12.45;;;;;;;15.20;86.37;97429.88;4893301;29;20436;-72
2023/08/29 06:03:36;;;;;;;14.50;12.77;;;;;;;15.17;85.93;97425.03;4885623;29;20052;-70
2023/08/29 06:06:03;;;;;;;16.38;14.68;;;;;;;15.29;85.99;97448.19;4873989;29;20542;-72
2023/08/29 06:08:29;;;;;;;15.15;13.65;;;;;;;15.24;86.09;97430.91;4878843;29;20092;-72
2023/08/29 06:10:55;;;;;;;15.10;13.10;;;;;;;15.22;85.92;97426.88;4877651;29;20067;-73
2023/08/29 06:13:20;;;;;;;14.45;13.15;;;;;;;15.37;85.93;97450.28;4871472;29;20101;-73
2023/08/29 06:15:46;;;;;;;12.80;11.70;;;;;;;15.43;85.93;97443.66;4873445;29;20041;-72
2023/08/29 06:18:11;;;;;;;16.17;14.55;;;;;;;15.40;85.82;97444.25;4893004;29;20041;-72
2023/08/29 06:20:36;;;;;;;15.70;14.18;;;;;;;15.28;85.88;97443.88;4880424;29;20044;-72
2023/08/29 06:23:03;;;;;;;17.90;14.75;;;;;;;15.16;85.60;97423.44;4886137;29;20043;-72
2023/08/29 06:25:28;;;;;;;18.70;16.10;;;;;;;15.45;85.73;97457.78;4886879;29;20368;-73
2023/08/29 06:27:54;;;;;;;14.68;13.32;;;;;;;15.47;85.61;97469.16;4866373;29;20044;-72
2023/08/29 06:30:19;;;;;;;13.88;12.57;;;;;;;15.47;85.87;97461.84;4877055;29;20558;-72
2023/08/29 06:32:45;;;;;;;14.70;13.02;;;;;;;15.43;85.84;97470.78;4892029;29;20041;-73
2023/08/29 06:35:11;;;;;;;13.65;12.32;;;;;;;15.39;85.82;97458.91;4877441;29;20032;-73
2023/08/29 06:37:37;;;;;;;15.15;13.75;;;;;;;15.49;85.71;97470.47;4873956;29;20068;-72
2023/08/29 06:40:07;;;;;;;13.65;11.98;;;;;;;15.54;85.61;97473.09;4882628;29;20049;-73
2023/08/29 06:42:32;;;;;;;14.38;12.90;;;;;;;15.59;85.33;97475.75;4892384;29;20461;-72
2023/08/29 06:44:58;;;;;;;17.00;13.57;;;;;;;15.63;85.41;97471.38;4892066;29;20141;-72
2023/08/29 06:47:26;;;;;;;14.25;12.75;;;;;;;15.54;85.08;97456.81;4880659;29;20040;-72
2023/08/29 06:49:54;;;;;;;17.08;15.25;;;;;;;15.60;85.28;97476.56;4882411;29;20021;-71
2023/08/29 06:52:20;;;;;;;14.73;11.98;;;;;;;15.65;85.57;97473.78;4888274;29;20041;-72
2023/08/29 06:54:45;;;;;;;16.83;14.07;;;;;;;15.37;85.64;97431.28;4877951;29;20080;-72
2023/08/29 06:57:11;;;;;;;15.35;13.77;;;;;;;15.56;85.76;97481.78;4892444;29;20048;-72
2023/08/29 06:59:36;;;;;;;15.73;14.20;;;;;;;15.59;85.48;97488.53;4879624;29;20121;-72
2023/08/29 07:02:02;;;;;;;14.77;13.25;;;;;;;15.47;85.92;97488.16;4877810;29;20445;-72
2023/08/29 07:04:27;;;;;;;14.30;12.98;;;;;;;15.40;85.99;97488.50;4877689;29;20032;-72
2023/08/29 07:06:52;;;;;;;15.35;13.90;;;;;;;15.45;85.64;97484.94;4877801;29;20045;-71
2023/08/29 07:09:18;;;;;;;14.73;13.30;;;;;;;15.45;85.69;97479.50;4877698;29;20036;-71
2023/08/29 07:11:43;;;;;;;16.42;14.35;;;;;;;15.45;85.78;97474.06;4877657;29;20392;-72
2023/08/29 07:14:08;;;;;;;16.63;15.02;;;;;;;15.43;85.81;97470.78;4877574;29;20053;-71
2023/08/29 07:16:34;;;;;;;15.27;13.70;;;;;;;15.51;85.96;97468.28;4877711;29;20041;-71
2023/08/29 07:18:59;;;;;;;15.70;13.98;;;;;;;15.62;86.11;97485.22;4865282;29;20085;-72
2023/08/29 07:21:25;;;;;;;15.73;14.23;;;;;;;15.67;85.90;97487.84;4870134;29;20049;-71
2023/08/29 07:23:50;;;;;;;15.25;13.80;;;;;;;15.66;85.77;97481.63;4871456;29;20021;-72
2023/08/29 07:26:15;;;;;;;14.98;12.52;;;;;;;15.64;85.99;97483.81;4859134;29;20456;-71
2023/08/29 07:28:41;;;;;;;15.07;13.63;;;;;;;15.76;85.84;97486.09;4872017;29;20068;-72
2023/08/29 07:31:06;;;;;;;15.52;14.02;;;;;;;15.75;85.76;97490.69;4877378;29;20056;-71
2023/08/29 07:33:32;;;;;;;14.15;12.75;;;;;;;15.75;85.83;97493.41;4875901;29;20066;-72
2023/08/29 07:35:57;;;;;;;16.45;14.50;;;;;;;15.92;85.51;97495.59;4871202;29;20511;-72
2023/08/29 07:38:23;;;;;;;15.88;14.27;;;;;;;15.85;85.86;97495.97;4871240;29;20025;-72
2023/08/29 07:40:48;;;;;;;14.77;13.07;;;;;;;15.91;85.42;97502.16;4871216;29;20109;-72
2023/08/29 07:43:15;;;;;;;14.43;13.13;;;;;;;16.00;85.56;97508.53;4870743;29;20029;-72
2023/08/29 07:45:41;;;;;;;14.15;11.98;;;;;;;15.92;85.36;97511.13;4891425;29;20041;-71
2023/08/29 07:48:06;;;;;;;13.75;12.35;;;;;;;15.88;85.38;97516.31;4891531;29;20167;-72
2023/08/29 07:50:32;;;;;;;13.25;12.02;;;;;;;15.83;85.68;97519.09;4877744;29;20044;-72
2023/08/29 07:52:57;;;;;;;14.50;12.77;;;;;;;15.73;85.77;97513.81;4879819;29;20476;-71
2023/08/29 07:55:23;;;;;;;14.75;12.85;;;;;;;15.70;85.86;97519.84;4895535;29;20043;-72
2023/08/29 07:57:48;;;;;;;13.38;12.13;;;;;;;15.77;85.76;97521.09;4895416;29;20025;-71
2023/08/29 08:00:15;;;;;;;13.07;11.82;;;;;;;15.69;85.86;97523.66;4868547;29;20099;-71
2023/08/29 08:02:41;;;;;;;13.77;12.35;;;;;;;15.63;86.08;97524.84;4866712;29;20661;-71
2023/08/29 08:05:11;;;;;;;12.60;11.40;;;;;;;15.64;85.64;97521.00;4888524;29;20041;-70
2023/08/29 08:07:40;;;;;;;11.77;10.77;;;;;;;15.64;86.24;97527.25;4889205;29;20136;-71
2023/08/29 08:10:06;;;;;;;13.20;12.00;;;;;;;15.78;86.04;97530.84;4895408;29;20025;-71
2023/08/29 08:12:32;;;;;;;13.85;12.55;;;;;;;15.85;85.80;97530.47;4894808;29;20380;-70
2023/08/29 08:14:58;;;;;;;12.95;11.65;;;;;;;15.79;86.30;97534.38;4879943;29;20104;-70
2023/08/29 08:17:24;;;;;;;13.20;12.00;;;;;;;15.72;86.01;97520.34;4895134;29;20160;-72
2023/08/29 08:19:49;;;;;;;13.30;12.10;;;;;;;15.86;86.20;97532.91;4876217;29;20033;-71
2023/08/29 08:22:15;;;;;;;12.68;11.48;;;;;;;15.86;86.57;97532.09;4880525;29;20049;-71
2023/08/29 08:24:41;;;;;;;13.93;12.52;;;;;;;15.86;86.54;97530.19;4879448;29;20037;-70
2023/08/29 08:27:07;;;;;;;15.65;13.15;;;;;;;15.87;86.88;97536.41;4880575;29;20388;-71
2023/08/29 08:29:32;;;;;;;13.15;11.95;;;;;;;15.99;86.65;97536.78;4879265;29;20040;-70
2023/08/29 08:31:58;;;;;;;14.68;13.10;;;;;;;16.00;86.35;97527.53;4880204;29;20041;-71
2023/08/29 08:34:23;;;;;;;15.63;11.98;;;;;;;16.03;86.79;97535.09;4894942;29;20028;-72
2023/08/29 08:36:48;;;;;;;12.23;11.02;;;;;;;15.93;86.57;97520.84;4868168;29;20042;-71
2023/08/29 08:39:14;;;;;;;13.88;12.45;;;;;;;16.06;86.56;97539.94;4874529;29;20038;-71
2023/08/29 08:41:40;;;;;;;13.32;11.95;;;;;;;16.08;86.79;97537.72;4873902;29;20045;-71
2023/08/29 08:44:08;;;;;;;12.65;11.45;;;;;;;16.00;86.94;97535.69;4888629;29;20108;-70
2023/08/29 08:46:34;;;;;;;11.45;10.30;;;;;;;16.01;86.51;97542.72;4873064;29;20059;-72
2023/08/29 08:49:00;;;;;;;11.73;10.10;;;;;;;16.05;86.25;97537.53;4894761;29;20488;-71
2023/08/29 08:51:27;;;;;;;11.23;10.23;;;;;;;15.95;86.29;97543.91;4894423;29;20033;-73
2023/08/29 08:53:53;;;;;;;11.13;10.13;;;;;;;15.88;86.15;97529.91;4879996;29;20437;-71
2023/08/29 08:56:19;;;;;;;11.65;10.55;;;;;;;15.92;86.39;97538.28;4882114;29;20037;-71
2023/08/29 08:58:45;;;;;;;11.50;10.40;;;;;;;16.00;86.18;97543.84;4894376;29;20089;-71
2023/08/29 09:01:11;;;;;;;10.70;9.70;;;;;;;15.88;86.15;97527.19;4881760;29;20041;-71
2023/08/29 09:03:38;;;;;;;11.23;10.13;;;;;;;16.07;85.91;97546.19;4891993;29;20052;-71
2023/08/29 09:06:05;;;;;;;11.20;10.20;;;;;;;15.70;85.92;97473.69;4867391;29;20041;-72
2023/08/29 09:08:31;;;;;;;11.73;10.57;;;;;;;16.13;86.07;97550.41;4894318;29;20449;-71
2023/08/29 09:11:00;;;;;;;11.25;10.35;;;;;;;16.18;85.84;97543.00;4867216;29;20456;-71
2023/08/29 09:13:26;;;;;;;14.18;12.60;;;;;;;16.13;86.56;97548.50;4879665;29;20029;-71
2023/08/29 09:15:51;;;;;;;13.88;12.48;;;;;;;16.09;86.79;97549.41;4879795;29;20037;-71
2023/08/29 09:18:24;;;;;;;14.55;12.95;;;;;;;16.09;86.93;97555.66;4878729;29;20460;-72
2023/08/29 09:20:51;;;;;;;13.90;12.60;;;;;;;16.13;86.95;97558.56;4878621;29;20547;-72
2023/08/29 09:23:24;;;;;;;14.45;13.00;;;;;;;16.15;87.01;97553.66;4878421;29;20463;-71
2023/08/29 09:25:58;;;;;;;14.05;12.13;;;;;;;16.06;87.19;97548.06;4893829;29;20081;-70
2023/08/29 09:28:28;;;;;;;12.77;11.68;;;;;;;16.08;87.73;97559.44;4882823;29;20473;-71
2023/08/29 09:30:53;;;;;;;12.32;11.18;;;;;;;15.98;87.77;97543.31;4887845;29;20049;-75
2023/08/29 09:33:23;;;;;;;10.85;9.85;;;;;;;15.98;88.04;97559.63;4886400;29;20044;-72
2023/08/29 09:35:51;;;;;;;9.30;8.40;;;;;;;15.98;87.60;97550.66;4865843;29;20049;-70
2023/08/29 09:38:18;;;;;;;9.77;8.98;;;;;;;16.03;88.01;97559.56;4881540;29;20049;-70
2023/08/29 09:40:49;;;;;;;9.55;8.70;;;;;;;16.04;88.32;97555.72;4881218;29;20049;-71
2023/08/29 09:43:16;;;;;;;8.38;7.68;;;;;;;16.16;88.17;97556.09;4881027;29;20029;-71
2023/08/29 09:45:43;;;;;;;7.80;7.05;;;;;;;16.10;88.29;97557.28;4878092;29;20029;-70
2023/08/29 09:48:09;;;;;;;7.90;7.20;;;;;;;16.07;87.42;97538.84;4878060;29;20041;-70
2023/08/29 09:50:35;;;;;;;6.72;6.22;;;;;;;16.14;87.41;97561.00;4900747;29;20538;-71
2023/08/29 09:53:01;;;;;;;6.47;5.88;;;;;;;16.12;87.35;97546.91;4882811;29;20065;-70
2023/08/29 09:55:37;;;;;;;7.13;6.53;;;;;;;16.27;86.93;97546.66;4893573;29;20545;-71
2023/08/29 09:58:04;;;;;;;6.18;5.47;;;;;;;16.01;87.84;97537.28;4880939;29;20076;-70
2023/08/29 10:00:30;;;;;;;7.00;6.30;;;;;;;16.23;87.59;97551.06;4870516;29;20530;-71
2023/08/29 10:02:56;;;;;;;7.00;6.40;;;;;;;16.38;87.41;97553.53;4886774;29;20061;-72
2023/08/29 10:05:24;;;;;;;7.65;6.95;;;;;;;16.57;86.83;97557.03;4883545;29;20037;-73
2023/08/29 10:07:52;;;;;;;6.72;6.13;;;;;;;16.70;86.90;97552.75;4880711;29;20047;-72
2023/08/29 10:10:17;;;;;;;6.97;6.38;;;;;;;16.79;86.16;97563.75;4868371;29;20037;-70
2023/08/29 10:12:43;;;;;;;6.78;6.28;;;;;;;16.85;85.86;97551.69;4889818;29;20056;-71
2023/08/29 10:15:09;;;;;;;7.05;6.07;;;;;;;16.99;85.41;97552.50;4869305;29;20041;-72
2023/08/29 10:17:35;;;;;;;6.72;6.05;;;;;;;17.14;85.28;97546.75;4877079;29;20047;-71
2023/08/29 10:20:08;;;;;;;5.93;5.43;;;;;;;17.31;84.74;97552.41;4892932;29;20504;-71
2023/08/29 10:22:34;;;;;;;5.07;4.60;;;;;;;17.26;83.89;97549.78;4863906;29;20072;-71
2023/08/29 10:25:01;;;;;;;6.65;5.20;;;;;;;17.29;83.22;97557.34;4881024;29;20064;-71
2023/08/29 10:27:26;;;;;;;5.43;5.03;;;;;;;17.31;83.41;97559.75;4870466;29;20480;-73
2023/08/29 10:29:52;;;;;;;4.75;4.10;;;;;;;17.23;83.74;97547.66;4881973;29;20025;-71
2023/08/29 10:32:17;;;;;;;4.32;4.03;;;;;;;17.20;83.25;97542.81;4878012;29;20041;-71
2023/08/29 10:34:43;;;;;;;4.70;4.20;;;;;;;17.28;82.73;97550.28;4880671;29;20036;-72
2023/08/29 10:37:19;;;;;;;4.70;4.30;;;;;;;17.23;82.79;97550.38;4884631;29;20548;-72
2023/08/29 10:39:45;;;;;;;4.10;3.80;;;;;;;17.19;82.51;97552.09;4869611;29;20125;-71
2023/08/29 10:42:14;;;;;;;4.00;3.60;;;;;;;17.22;82.33;97546.06;4864460;29;20116;-71
2023/08/29 10:44:42;;;;;;;4.43;3.90;;;;;;;17.22;81.89;97544.13;4866364;29;20034;-71
2023/08/29 10:47:23;;;;;;;4.50;3.20;;;;;;;17.27;81.92;97544.03;4887907;29;20121;-71
2023/08/29 10:49:59;;;;;;;3.60;3.30;;;;;;;17.43;81.87;97547.25;4874226;29;20036;-72
2023/08/29 10:52:33;;;;;;;3.88;3.45;;;;;;;17.45;81.86;97522.44;4882284;29;20052;-72
2023/08/29 10:55:03;;;;;;;3.72;3.50;;;;;;;17.65;81.88;97544.63;4897253;29;20044;-72
2023/08/29 10:57:29;;;;;;;3.22;3.03;;;;;;;17.73;81.79;97545.81;4880931;29;20049;-73
2023/08/29 10:59:55;;;;;;;3.70;3.40;;;;;;;17.82;81.27;97539.34;4892356;29;20361;-72
2023/08/29 11:02:22;;;;;;;3.38;3.03;;;;;;;17.77;81.18;97542.19;4892061;29;20523;-71
2023/08/29 11:04:50;;;;;;;4.10;3.22;;;;;;;17.61;80.88;97532.75;4877922;29;20033;-72
2023/08/29 11:07:25;;;;;;;3.00;2.80;;;;;;;17.69;80.80;97550.28;4876790;29;20072;-72
2023/08/29 11:10:10;;;;;;;3.20;2.92;;;;;;;17.67;79.94;97547.84;4861353;29;20076;-72
2023/08/29 11:12:36;;;;;;;3.15;2.70;;;;;;;17.82;80.45;97547.53;4877468;29;20033;-71
2023/08/29 11:15:02;;;;;;;3.15;2.95;;;;;;;17.89;79.97;97542.47;4892092;29;20029;-71
2023/08/29 11:17:27;;;;;;;3.08;2.88;;;;;;;17.75;79.68;97528.06;4892417;29;20047;-72
2023/08/29 11:19:57;;;;;;;3.60;3.30;;;;;;;17.87;79.33;97539.25;4873396;29;20034;-71